Terminal Aerodrome Forecast
Issued by NWS Shreveport, LA

Home | Current Version | Previous Version | Text Only | Print | Product List | Glossary On
Versions: 1 2 3 4 5 6 7 8 9 10 11 12 13
460
FTUS44 KSHV 232341
TAFGGG
TAF
KGGG 232341Z 2400/2424 23007KT P6SM VCTS FEW060CB SCT080
      TEMPO 2400/2404 VRB15G25KT 3SM -TSRA BR OVC030CB
     FM240400 19006KT P6SM SCT015 OVC100
     FM240900 20005KT P6SM VCTS BKN040CB
      TEMPO 2412/2416 3SM -TSRA BR OVC015CB
     FM241600 23009KT P6SM -RA BKN100=

USA.gov is the U.S. government's official web portal to all federal, state and local government web resources and services.